sensor_id;sensor_type;location;lat;lon;timestamp;pressure;altitude;pressure_sealevel;temperature;humidity
13387;BME280;6763;48.524;9.044;2022-10-17T00:00:21;98308.00;;;16.37;60.95
13387;BME280;6763;48.524;9.044;2022-10-17T00:02:46;98313.25;;;16.37;60.84
13387;BME280;6763;48.524;9.044;2022-10-17T00:05:11;98312.41;;;16.36;61.02
13387;BME280;6763;48.524;9.044;2022-10-17T00:07:37;98315.81;;;16.38;60.74
13387;BME280;6763;48.524;9.044;2022-10-17T00:10:04;98315.91;;;16.35;60.83
13387;BME280;6763;48.524;9.044;2022-10-17T00:12:30;98315.06;;;16.35;61.15
13387;BME280;6763;48.524;9.044;2022-10-17T00:14:55;98313.25;;;16.37;61.30
13387;BME280;6763;48.524;9.044;2022-10-17T00:17:20;98316.81;;;16.34;61.38
13387;BME280;6763;48.524;9.044;2022-10-17T00:19:46;98325.50;;;16.35;61.23
13387;BME280;6763;48.524;9.044;2022-10-17T00:22:11;98320.34;;;16.33;61.25
13387;BME280;6763;48.524;9.044;2022-10-17T00:24:37;98323.91;;;16.31;60.80
13387;BME280;6763;48.524;9.044;2022-10-17T00:27:03;98321.34;;;16.29;60.80
13387;BME280;6763;48.524;9.044;2022-10-17T00:29:29;98329.34;;;16.25;60.58
13387;BME280;6763;48.524;9.044;2022-10-17T00:31:55;98326.00;;;16.20;60.55
13387;BME280;6763;48.524;9.044;2022-10-17T00:34:21;98333.16;;;16.14;60.57
13387;BME280;6763;48.524;9.044;2022-10-17T00:36:46;98338.44;;;16.13;60.56
13387;BME280;6763;48.524;9.044;2022-10-17T00:39:12;98342.88;;;16.09;60.43
13387;BME280;6763;48.524;9.044;2022-10-17T00:41:37;98340.28;;;16.09;60.70
13387;BME280;6763;48.524;9.044;2022-10-17T00:46:32;98341.84;;;16.15;61.26
13387;BME280;6763;48.524;9.044;2022-10-17T00:49:02;98345.19;;;16.19;60.98
13387;BME280;6763;48.524;9.044;2022-10-17T00:51:33;98344.34;;;16.18;61.31
13387;BME280;6763;48.524;9.044;2022-10-17T00:54:01;98338.28;;;16.18;61.29
13387;BME280;6763;48.524;9.044;2022-10-17T00:56:28;98340.97;;;16.14;60.81
13387;BME280;6763;48.524;9.044;2022-10-17T00:58:54;98332.44;;;16.09;61.03
13387;BME280;6763;48.524;9.044;2022-10-17T01:01:20;98339.66;;;16.01;60.73
13387;BME280;6763;48.524;9.044;2022-10-17T01:03:45;98335.56;;;15.93;60.67
13387;BME280;6763;48.524;9.044;2022-10-17T01:06:10;98346.16;;;15.88;60.70
13387;BME280;6763;48.524;9.044;2022-10-17T01:08:36;98338.50;;;15.82;60.66
13387;BME280;6763;48.524;9.044;2022-10-17T01:13:50;98334.47;;;15.72;60.64
13387;BME280;6763;48.524;9.044;2022-10-17T01:18:50;98340.78;;;15.65;60.86
13387;BME280;6763;48.524;9.044;2022-10-17T01:32:30;98355.19;;;15.49;60.60
13387;BME280;6763;48.524;9.044;2022-10-17T01:35:11;98349.13;;;15.48;60.71
13387;BME280;6763;48.524;9.044;2022-10-17T01:37:46;98343.91;;;15.48;60.70
13387;BME280;6763;48.524;9.044;2022-10-17T01:40:20;98344.75;;;15.49;61.40
13387;BME280;6763;48.524;9.044;2022-10-17T01:43:03;98345.59;;;15.49;61.89
13387;BME280;6763;48.524;9.044;2022-10-17T01:45:56;98335.97;;;15.51;62.03
13387;BME280;6763;48.524;9.044;2022-10-17T01:48:29;98327.25;;;15.52;61.34
13387;BME280;6763;48.524;9.044;2022-10-17T01:51:02;98333.34;;;15.53;61.26
13387;BME280;6763;48.524;9.044;2022-10-17T01:53:33;98334.13;;;15.55;61.38
13387;BME280;6763;48.524;9.044;2022-10-17T01:56:02;98328.84;;;15.58;61.25
13387;BME280;6763;48.524;9.044;2022-10-17T01:58:37;98324.50;;;15.57;61.34
13387;BME280;6763;48.524;9.044;2022-10-17T02:01:06;98326.22;;;15.58;61.30
13387;BME280;6763;48.524;9.044;2022-10-17T02:03:33;98327.09;;;15.59;61.22
13387;BME280;6763;48.524;9.044;2022-10-17T02:06:00;98330.53;;;15.59;61.34
13387;BME280;6763;48.524;9.044;2022-10-17T02:08:42;98325.22;;;15.62;60.98
13387;BME280;6763;48.524;9.044;2022-10-17T02:11:14;98312.13;;;15.64;61.25
13387;BME280;6763;48.524;9.044;2022-10-17T02:14:31;98320.78;;;15.66;60.86
13387;BME280;6763;48.524;9.044;2022-10-17T02:16:39;98323.47;;;15.63;61.23
13387;BME280;6763;48.524;9.044;2022-10-17T02:21:52;98327.81;;;15.62;60.94
13387;BME280;6763;48.524;9.044;2022-10-17T02:24:35;98329.69;;;15.59;60.73
13387;BME280;6763;48.524;9.044;2022-10-17T02:27:06;98334.13;;;15.55;61.01
13387;BME280;6763;48.524;9.044;2022-10-17T02:29:36;98336.81;;;15.52;60.65
13387;BME280;6763;48.524;9.044;2022-10-17T02:32:06;98332.56;;;15.49;60.76
13387;BME280;6763;48.524;9.044;2022-10-17T02:34:37;98336.13;;;15.47;60.72
13387;BME280;6763;48.524;9.044;2022-10-17T02:37:06;98337.09;;;15.43;60.56
13387;BME280;6763;48.524;9.044;2022-10-17T02:39:34;98342.31;;;15.41;60.76
13387;BME280;6763;48.524;9.044;2022-10-17T02:42:02;98343.28;;;15.39;60.42
13387;BME280;6763;48.524;9.044;2022-10-17T02:44:31;98339.06;;;15.33;60.57
13387;BME280;6763;48.524;9.044;2022-10-17T02:47:08;98346.06;;;15.33;60.25
13387;BME280;6763;48.524;9.044;2022-10-17T02:49:38;98347.91;;;15.29;59.98
13387;BME280;6763;48.524;9.044;2022-10-17T02:52:11;98353.16;;;15.28;60.10
13387;BME280;6763;48.524;9.044;2022-10-17T02:54:42;98359.38;;;15.24;59.91
13387;BME280;6763;48.524;9.044;2022-10-17T02:57:15;98357.78;;;15.18;59.97
13387;BME280;6763;48.524;9.044;2022-10-17T02:59:44;98348.34;;;15.14;60.09
13387;BME280;6763;48.524;9.044;2022-10-17T03:02:10;98364.78;;;15.16;60.17
13387;BME280;6763;48.524;9.044;2022-10-17T03:04:35;98359.53;;;15.18;60.67
13387;BME280;6763;48.524;9.044;2022-10-17T03:07:01;98356.91;;;15.18;60.43
13387;BME280;6763;48.524;9.044;2022-10-17T03:09:26;98355.16;;;15.18;60.48
13387;BME280;6763;48.524;9.044;2022-10-17T03:11:51;98355.16;;;15.18;60.69
13387;BME280;6763;48.524;9.044;2022-10-17T03:14:17;98363.78;;;15.20;60.52
13387;BME280;6763;48.524;9.044;2022-10-17T03:16:42;98357.75;;;15.20;60.65
13387;BME280;6763;48.524;9.044;2022-10-17T03:19:08;98362.91;;;15.21;60.93
13387;BME280;6763;48.524;9.044;2022-10-17T03:21:33;98365.47;;;15.23;61.06
13387;BME280;6763;48.524;9.044;2022-10-17T03:24:01;98369.84;;;15.22;60.97
13387;BME280;6763;48.524;9.044;2022-10-17T03:26:26;98375.94;;;15.21;60.72
13387;BME280;6763;48.524;9.044;2022-10-17T03:28:53;98377.78;;;15.18;60.49
13387;BME280;6763;48.524;9.044;2022-10-17T03:31:19;98370.13;;;15.12;60.25
13387;BME280;6763;48.524;9.044;2022-10-17T03:33:44;98376.31;;;15.08;60.27
13387;BME280;6763;48.524;9.044;2022-10-17T03:36:12;98378.97;;;15.06;60.52
13387;BME280;6763;48.524;9.044;2022-10-17T03:38:39;98387.69;;;15.05;60.64
13387;BME280;6763;48.524;9.044;2022-10-17T03:41:05;98386.81;;;15.05;60.80
13387;BME280;6763;48.524;9.044;2022-10-17T03:43:31;98385.88;;;15.09;61.11
13387;BME280;6763;48.524;9.044;2022-10-17T03:45:57;98389.16;;;15.15;61.33
13387;BME280;6763;48.524;9.044;2022-10-17T03:48:24;98389.84;;;15.22;61.50
13387;BME280;6763;48.524;9.044;2022-10-17T03:50:50;98386.25;;;15.26;61.25
13387;BME280;6763;48.524;9.044;2022-10-17T03:53:16;98384.44;;;15.28;61.85
13387;BME280;6763;48.524;9.044;2022-10-17T03:55:41;98387.81;;;15.33;61.64
13387;BME280;6763;48.524;9.044;2022-10-17T03:58:06;98394.69;;;15.35;61.79
13387;BME280;6763;48.524;9.044;2022-10-17T04:00:32;98387.69;;;15.37;61.90
13387;BME280;6763;48.524;9.044;2022-10-17T04:02:59;98387.63;;;15.39;61.75
13387;BME280;6763;48.524;9.044;2022-10-17T04:05:25;98381.50;;;15.40;61.27
13387;BME280;6763;48.524;9.044;2022-10-17T04:07:50;98392.81;;;15.40;61.24
13387;BME280;6763;48.524;9.044;2022-10-17T04:10:15;98391.97;;;15.38;61.11
13387;BME280;6763;48.524;9.044;2022-10-17T04:12:41;98395.53;;;15.36;60.92
13387;BME280;6763;48.524;9.044;2022-10-17T04:15:07;98400.88;;;15.31;60.57
13387;BME280;6763;48.524;9.044;2022-10-17T04:17:32;98407.09;;;15.26;60.50
13387;BME280;6763;48.524;9.044;2022-10-17T04:19:57;98409.03;;;15.19;60.40
13387;BME280;6763;48.524;9.044;2022-10-17T04:22:23;98419.63;;;15.13;60.31
13387;BME280;6763;48.524;9.044;2022-10-17T04:24:48;98410.41;;;15.02;60.24
13387;BME280;6763;48.524;9.044;2022-10-17T04:27:14;98406.28;;;14.91;60.09
13387;BME280;6763;48.524;9.044;2022-10-17T04:29:39;98416.81;;;14.88;60.21
13387;BME280;6763;48.524;9.044;2022-10-17T04:32:04;98417.03;;;14.81;60.42
13387;BME280;6763;48.524;9.044;2022-10-17T04:34:30;98426.59;;;14.80;60.91
13387;BME280;6763;48.524;9.044;2022-10-17T04:36:55;98419.72;;;14.76;60.93
13387;BME280;6763;48.524;9.044;2022-10-17T04:39:21;98418.09;;;14.72;61.17
13387;BME280;6763;48.524;9.044;2022-10-17T04:41:46;98422.38;;;14.75;61.09
13387;BME280;6763;48.524;9.044;2022-10-17T04:44:11;98426.78;;;14.73;61.05
13387;BME280;6763;48.524;9.044;2022-10-17T04:46:38;98415.63;;;14.68;61.13
13387;BME280;6763;48.524;9.044;2022-10-17T04:49:04;98427.91;;;14.63;60.49
13387;BME280;6763;48.524;9.044;2022-10-17T04:51:29;98429.72;;;14.58;60.30
13387;BME280;6763;48.524;9.044;2022-10-17T04:53:54;98426.63;;;14.44;60.30
13387;BME280;6763;48.524;9.044;2022-10-17T04:56:21;98428.50;;;14.37;59.97
13387;BME280;6763;48.524;9.044;2022-10-17T04:58:48;98426.91;;;14.32;60.36
13387;BME280;6763;48.524;9.044;2022-10-17T05:01:18;98420.06;;;14.26;60.15
13387;BME280;6763;48.524;9.044;2022-10-17T05:03:44;98415.06;;;14.17;60.55
13387;BME280;6763;48.524;9.044;2022-10-17T05:06:12;98407.34;;;14.12;60.50
13387;BME280;6763;48.524;9.044;2022-10-17T05:08:38;98415.22;;;14.11;60.38
13387;BME280;6763;48.524;9.044;2022-10-17T05:11:04;98424.69;;;14.13;60.38
13387;BME280;6763;48.524;9.044;2022-10-17T05:13:30;98416.03;;;14.13;60.54
13387;BME280;6763;48.524;9.044;2022-10-17T05:16:00;98417.66;;;14.18;60.35
13387;BME280;6763;48.524;9.044;2022-10-17T05:18:27;98421.16;;;14.16;61.00
13387;BME280;6763;48.524;9.044;2022-10-17T05:20:52;98424.47;;;14.24;60.65
13387;BME280;6763;48.524;9.044;2022-10-17T05:23:18;98414.88;;;14.24;60.86
13387;BME280;6763;48.524;9.044;2022-10-17T05:25:43;98404.50;;;14.23;61.56
13387;BME280;6763;48.524;9.044;2022-10-17T05:28:08;98411.31;;;14.28;61.19
13387;BME280;6763;48.524;9.044;2022-10-17T05:30:34;98409.53;;;14.30;61.28
13387;BME280;6763;48.524;9.044;2022-10-17T05:33:00;98406.94;;;14.30;61.30
13387;BME280;6763;48.524;9.044;2022-10-17T05:35:26;98415.56;;;14.34;61.28
13387;BME280;6763;48.524;9.044;2022-10-17T05:37:51;98419.84;;;14.37;61.54
13387;BME280;6763;48.524;9.044;2022-10-17T05:40:16;98423.28;;;14.39;61.32
13387;BME280;6763;48.524;9.044;2022-10-17T05:42:46;98424.94;;;14.41;61.31
13387;BME280;6763;48.524;9.044;2022-10-17T05:45:12;98424.00;;;14.44;61.20
13387;BME280;6763;48.524;9.044;2022-10-17T05:47:37;98420.53;;;14.45;61.03
13387;BME280;6763;48.524;9.044;2022-10-17T05:50:03;98419.66;;;14.44;61.32
13387;BME280;6763;48.524;9.044;2022-10-17T05:52:28;98432.56;;;14.49;61.39
13387;BME280;6763;48.524;9.044;2022-10-17T05:54:54;98436.06;;;14.48;61.02
13387;BME280;6763;48.524;9.044;2022-10-17T05:57:19;98442.94;;;14.50;61.49
13387;BME280;6763;48.524;9.044;2022-10-17T05:59:44;98449.06;;;14.49;61.03
13387;BME280;6763;48.524;9.044;2022-10-17T06:02:13;98448.19;;;14.49;61.33
13387;BME280;6763;48.524;9.044;2022-10-17T06:04:38;98449.94;;;14.48;61.35
13387;BME280;6763;48.524;9.044;2022-10-17T06:07:09;98455.97;;;14.50;61.20
13387;BME280;6763;48.524;9.044;2022-10-17T06:09:34;98446.41;;;14.51;61.20
13387;BME280;6763;48.524;9.044;2022-10-17T06:12:00;98438.59;;;14.52;61.63
13387;BME280;6763;48.524;9.044;2022-10-17T06:14:25;98455.69;;;14.62;61.49
13387;BME280;6763;48.524;9.044;2022-10-17T06:16:50;98457.44;;;14.62;61.31
13387;BME280;6763;48.524;9.044;2022-10-17T06:19:16;98460.84;;;14.64;60.79
13387;BME280;6763;48.524;9.044;2022-10-17T06:21:41;98466.13;;;14.62;60.78
13387;BME280;6763;48.524;9.044;2022-10-17T06:24:07;98467.88;;;14.62;61.23
13387;BME280;6763;48.524;9.044;2022-10-17T06:26:32;98466.13;;;14.62;60.79
13387;BME280;6763;48.524;9.044;2022-10-17T06:28:57;98463.59;;;14.59;60.58
13387;BME280;6763;48.524;9.044;2022-10-17T06:31:23;98470.59;;;14.57;60.84
13387;BME280;6763;48.524;9.044;2022-10-17T06:33:48;98476.53;;;14.62;61.21
13387;BME280;6763;48.524;9.044;2022-10-17T06:36:14;98478.22;;;14.63;61.55
13387;BME280;6763;48.524;9.044;2022-10-17T06:38:40;98483.25;;;14.71;61.75
13387;BME280;6763;48.524;9.044;2022-10-17T06:41:08;98478.97;;;14.70;61.68
13387;BME280;6763;48.524;9.044;2022-10-17T06:43:37;98489.22;;;14.76;61.53
13387;BME280;6763;48.524;9.044;2022-10-17T06:46:05;98497.03;;;14.77;61.57
13387;BME280;6763;48.524;9.044;2022-10-17T06:48:31;98503.03;;;14.81;61.24
13387;BME280;6763;48.524;9.044;2022-10-17T06:51:03;98511.69;;;14.81;61.46
13387;BME280;6763;48.524;9.044;2022-10-17T06:53:49;98500.38;;;14.82;61.66
13387;BME280;6763;48.524;9.044;2022-10-17T06:56:14;98503.78;;;14.86;61.41
13387;BME280;6763;48.524;9.044;2022-10-17T06:58:40;98520.03;;;14.96;61.68
13387;BME280;6763;48.524;9.044;2022-10-17T07:01:12;98511.34;;;14.97;61.79
13387;BME280;6763;48.524;9.044;2022-10-17T07:03:38;98522.44;;;15.03;61.92
13387;BME280;6763;48.524;9.044;2022-10-17T07:06:05;98522.41;;;15.05;62.05
13387;BME280;6763;48.524;9.044;2022-10-17T07:08:44;98518.78;;;15.10;61.77
13387;BME280;6763;48.524;9.044;2022-10-17T07:11:15;98522.13;;;15.17;62.09
13387;BME280;6763;48.524;9.044;2022-10-17T07:13:41;98529.69;;;15.26;62.23
13387;BME280;6763;48.524;9.044;2022-10-17T07:16:10;98532.09;;;15.35;62.14
13387;BME280;6763;48.524;9.044;2022-10-17T07:18:41;98517.97;;;15.42;62.04
13387;BME280;6763;48.524;9.044;2022-10-17T07:21:12;98529.03;;;15.53;61.92
13387;BME280;6763;48.524;9.044;2022-10-17T07:23:40;98533.97;;;15.64;61.97
13387;BME280;6763;48.524;9.044;2022-10-17T07:26:09;98538.06;;;15.72;61.64
13387;BME280;6763;48.524;9.044;2022-10-17T07:28:41;98541.22;;;15.85;61.81
13387;BME280;6763;48.524;9.044;2022-10-17T07:31:18;98541.66;;;15.99;61.64
13387;BME280;6763;48.524;9.044;2022-10-17T07:33:50;98548.19;;;16.13;62.13
13387;BME280;6763;48.524;9.044;2022-10-17T07:36:16;98540.75;;;16.31;61.97
13387;BME280;6763;48.524;9.044;2022-10-17T07:38:42;98539.34;;;16.48;62.38
13387;BME280;6763;48.524;9.044;2022-10-17T07:41:10;98544.03;;;16.66;62.42
13387;BME280;6763;48.524;9.044;2022-10-17T07:43:39;98547.84;;;16.84;62.08
13387;BME280;6763;48.524;9.044;2022-10-17T07:46:07;98547.34;;;16.99;62.25
13387;BME280;6763;48.524;9.044;2022-10-17T07:48:42;98555.44;;;17.19;61.74
13387;BME280;6763;48.524;9.044;2022-10-17T07:51:10;98555.53;;;17.43;61.77
13387;BME280;6763;48.524;9.044;2022-10-17T07:53:37;98550.66;;;17.58;61.89
13387;BME280;6763;48.524;9.044;2022-10-17T07:56:07;98547.44;;;17.75;61.39
13387;BME280;6763;48.524;9.044;2022-10-17T07:58:33;98547.72;;;17.92;61.35
13387;BME280;6763;48.524;9.044;2022-10-17T08:01:09;98550.56;;;18.09;61.29
13387;BME280;6763;48.524;9.044;2022-10-17T08:03:38;98551.66;;;18.27;60.92
13387;BME280;6763;48.524;9.044;2022-10-17T08:06:04;98546.69;;;18.42;60.89
13387;BME280;6763;48.524;9.044;2022-10-17T08:08:29;98546.00;;;18.61;61.02
13387;BME280;6763;48.524;9.044;2022-10-17T08:11:01;98545.25;;;18.80;60.78
13387;BME280;6763;48.524;9.044;2022-10-17T08:13:26;98552.31;;;19.00;60.56
13387;BME280;6763;48.524;9.044;2022-10-17T08:15:52;98556.91;;;19.16;59.67
13387;BME280;6763;48.524;9.044;2022-10-17T08:18:17;98546.75;;;19.29;59.56
13387;BME280;6763;48.524;9.044;2022-10-17T08:20:43;98544.41;;;19.43;59.86
13387;BME280;6763;48.524;9.044;2022-10-17T08:23:09;98549.88;;;19.59;59.38
13387;BME280;6763;48.524;9.044;2022-10-17T08:25:37;98545.44;;;19.81;59.48
13387;BME280;6763;48.524;9.044;2022-10-17T08:28:02;98543.69;;;20.00;57.90
13387;BME280;6763;48.524;9.044;2022-10-17T08:30:27;98542.16;;;20.15;57.48
13387;BME280;6763;48.524;9.044;2022-10-17T08:32:54;98538.16;;;20.26;56.41
13387;BME280;6763;48.524;9.044;2022-10-17T08:35:20;98541.22;;;20.36;56.28
13387;BME280;6763;48.524;9.044;2022-10-17T08:37:46;98539.88;;;20.46;56.13
13387;BME280;6763;48.524;9.044;2022-10-17T08:40:25;98540.94;;;20.61;55.06
13387;BME280;6763;48.524;9.044;2022-10-17T08:45:54;98537.91;;;20.87;54.14
13387;BME280;6763;48.524;9.044;2022-10-17T08:48:23;98552.13;;;21.01;53.33
13387;BME280;6763;48.524;9.044;2022-10-17T08:55:52;98551.28;;;21.37;51.32
13387;BME280;6763;48.524;9.044;2022-10-17T08:58:28;98547.78;;;21.53;50.79
13387;BME280;6763;48.524;9.044;2022-10-17T09:10:14;98545.16;;;22.38;49.33
13387;BME280;6763;48.524;9.044;2022-10-17T09:18:12;98539.81;;;23.17;47.46
13387;BME280;6763;48.524;9.044;2022-10-17T09:20:44;98536.38;;;23.47;46.99
13387;BME280;6763;48.524;9.044;2022-10-17T09:23:15;98533.03;;;23.73;46.06
13387;BME280;6763;48.524;9.044;2022-10-17T09:25:44;98542.13;;;23.97;46.07
13387;BME280;6763;48.524;9.044;2022-10-17T09:28:36;98534.81;;;24.16;45.28
13387;BME280;6763;48.524;9.044;2022-10-17T09:31:05;98529.41;;;24.32;44.47
13387;BME280;6763;48.524;9.044;2022-10-17T09:33:41;98536.31;;;24.48;44.28
13387;BME280;6763;48.524;9.044;2022-10-17T09:36:13;98535.97;;;24.67;43.69
13387;BME280;6763;48.524;9.044;2022-10-17T09:38:42;98530.41;;;24.86;42.79
13387;BME280;6763;48.524;9.044;2022-10-17T09:41:19;98530.19;;;25.03;42.63
13387;BME280;6763;48.524;9.044;2022-10-17T09:43:45;98529.91;;;25.20;41.72
13387;BME280;6763;48.524;9.044;2022-10-17T09:46:35;98533.25;;;25.36;41.29
13387;BME280;6763;48.524;9.044;2022-10-17T09:49:05;98526.97;;;25.51;41.20
13387;BME280;6763;48.524;9.044;2022-10-17T09:51:36;98512.78;;;25.65;41.52
13387;BME280;6763;48.524;9.044;2022-10-17T09:54:13;98525.84;;;25.93;40.88
13387;BME280;6763;48.524;9.044;2022-10-17T09:57:09;98516.75;;;26.22;39.70
13387;BME280;6763;48.524;9.044;2022-10-17T09:59:37;98516.16;;;26.55;39.65
13387;BME280;6763;48.524;9.044;2022-10-17T10:04:59;98516.13;;;27.28;38.71
13387;BME280;6763;48.524;9.044;2022-10-17T10:07:28;98521.94;;;27.56;38.51
13387;BME280;6763;48.524;9.044;2022-10-17T10:09:54;98517.91;;;27.86;38.48
13387;BME280;6763;48.524;9.044;2022-10-17T10:12:26;98521.47;;;28.08;37.89
13387;BME280;6763;48.524;9.044;2022-10-17T10:14:52;98512.16;;;28.36;37.63
13387;BME280;6763;48.524;9.044;2022-10-17T10:17:37;98514.00;;;28.69;36.72
13387;BME280;6763;48.524;9.044;2022-10-17T10:20:25;98511.97;;;29.04;36.25
13387;BME280;6763;48.524;9.044;2022-10-17T10:25:36;98520.63;;;29.60;35.15
13387;BME280;6763;48.524;9.044;2022-10-17T10:28:09;98524.84;;;29.63;34.59
13387;BME280;6763;48.524;9.044;2022-10-17T10:30:35;98516.19;;;29.49;34.47
13387;BME280;6763;48.524;9.044;2022-10-17T10:33:01;98527.03;;;29.37;35.09
13387;BME280;6763;48.524;9.044;2022-10-17T10:35:34;98524.63;;;29.34;35.22
13387;BME280;6763;48.524;9.044;2022-10-17T10:38:06;98525.94;;;29.39;35.12
13387;BME280;6763;48.524;9.044;2022-10-17T10:40:45;98532.06;;;29.51;35.27
13387;BME280;6763;48.524;9.044;2022-10-17T10:43:32;98533.25;;;29.58;34.71
13387;BME280;6763;48.524;9.044;2022-10-17T10:45:58;98524.13;;;29.61;34.78
13387;BME280;6763;48.524;9.044;2022-10-17T10:48:26;98528.81;;;29.68;34.81
13387;BME280;6763;48.524;9.044;2022-10-17T10:50:55;98519.47;;;29.74;34.93
13387;BME280;6763;48.524;9.044;2022-10-17T10:53:33;98520.84;;;29.89;34.27
13387;BME280;6763;48.524;9.044;2022-10-17T10:56:20;98525.59;;;30.06;33.75
13387;BME280;6763;48.524;9.044;2022-10-17T10:58:54;98520.31;;;30.16;33.71
13387;BME280;6763;48.524;9.044;2022-10-17T11:04:19;98522.09;;;29.85;33.92
13387;BME280;6763;48.524;9.044;2022-10-17T11:06:46;98518.53;;;29.64;33.55
13387;BME280;6763;48.524;9.044;2022-10-17T11:09:57;98523.72;;;29.44;33.20
13387;BME280;6763;48.524;9.044;2022-10-17T11:14:59;98514.38;;;29.71;33.03
13387;BME280;6763;48.524;9.044;2022-10-17T11:22:39;98511.53;;;30.64;31.96
13387;BME280;6763;48.524;9.044;2022-10-17T11:25:29;98509.72;;;31.05;31.60
13387;BME280;6763;48.524;9.044;2022-10-17T11:27:55;98510.69;;;31.42;31.24
13387;BME280;6763;48.524;9.044;2022-10-17T11:30:22;98507.91;;;31.63;29.98
13387;BME280;6763;48.524;9.044;2022-10-17T11:32:59;98512.25;;;31.73;29.52
13387;BME280;6763;48.524;9.044;2022-10-17T11:35:29;98506.47;;;31.87;30.17
13387;BME280;6763;48.524;9.044;2022-10-17T11:40:57;98518.00;;;32.07;29.50
13387;BME280;6763;48.524;9.044;2022-10-17T11:43:44;98516.56;;;32.13;29.65
13387;BME280;6763;48.524;9.044;2022-10-17T11:46:16;98518.06;;;32.34;29.42
13387;BME280;6763;48.524;9.044;2022-10-17T11:51:21;98512.63;;;33.08;28.68
13387;BME280;6763;48.524;9.044;2022-10-17T11:56:15;98510.19;;;33.67;27.96
13387;BME280;6763;48.524;9.044;2022-10-17T11:58:55;98509.41;;;33.93;26.79
13387;BME280;6763;48.524;9.044;2022-10-17T12:01:48;98512.09;;;33.93;25.41
13387;BME280;6763;48.524;9.044;2022-10-17T12:07:18;98517.22;;;33.86;24.49
13387;BME280;6763;48.524;9.044;2022-10-17T12:12:29;98507.22;;;33.18;24.75
13387;BME280;6763;48.524;9.044;2022-10-17T12:17:37;98494.53;;;33.10;25.22
13387;BME280;6763;48.524;9.044;2022-10-17T12:22:51;98495.38;;;33.28;24.67
13387;BME280;6763;48.524;9.044;2022-10-17T12:25:23;98499.75;;;33.47;24.80
13387;BME280;6763;48.524;9.044;2022-10-17T12:28:09;98497.84;;;33.57;23.44
13387;BME280;6763;48.524;9.044;2022-10-17T12:30:35;98497.91;;;33.65;23.06
13387;BME280;6763;48.524;9.044;2022-10-17T12:33:27;98491.25;;;33.69;22.31
13387;BME280;6763;48.524;9.044;2022-10-17T12:38:42;98494.28;;;33.03;21.13
13387;BME280;6763;48.524;9.044;2022-10-17T12:41:08;98489.50;;;32.97;21.44
13387;BME280;6763;48.524;9.044;2022-10-17T12:43:44;98487.38;;;33.01;21.33
13387;BME280;6763;48.524;9.044;2022-10-17T12:46:10;98484.69;;;33.01;21.19
13387;BME280;6763;48.524;9.044;2022-10-17T12:53:43;98476.91;;;33.43;21.11
13387;BME280;6763;48.524;9.044;2022-10-17T12:56:13;98483.59;;;33.21;20.96
13387;BME280;6763;48.524;9.044;2022-10-17T12:58:44;98490.19;;;33.27;21.31
13387;BME280;6763;48.524;9.044;2022-10-17T13:01:17;98490.47;;;33.24;21.21
13387;BME280;6763;48.524;9.044;2022-10-17T13:03:46;98492.94;;;33.35;21.35
13387;BME280;6763;48.524;9.044;2022-10-17T13:06:20;98491.25;;;33.34;20.96
13387;BME280;6763;48.524;9.044;2022-10-17T13:08:49;98495.47;;;33.36;21.05
13387;BME280;6763;48.524;9.044;2022-10-17T13:11:22;98495.09;;;33.49;21.06
13387;BME280;6763;48.524;9.044;2022-10-17T13:13:51;98491.63;;;33.39;20.50
13387;BME280;6763;48.524;9.044;2022-10-17T13:16:35;98496.47;;;33.18;21.29
13387;BME280;6763;48.524;9.044;2022-10-17T13:19:10;98498.09;;;33.01;21.13
13387;BME280;6763;48.524;9.044;2022-10-17T13:21:36;98498.19;;;32.91;21.06
13387;BME280;6763;48.524;9.044;2022-10-17T13:24:22;98497.47;;;32.89;21.29
13387;BME280;6763;48.524;9.044;2022-10-17T13:26:47;98504.91;;;32.95;21.42
13387;BME280;6763;48.524;9.044;2022-10-17T13:29:14;98501.16;;;32.88;21.11
13387;BME280;6763;48.524;9.044;2022-10-17T13:31:41;98509.91;;;32.90;21.00
13387;BME280;6763;48.524;9.044;2022-10-17T13:34:19;98506.16;;;33.01;21.68
13387;BME280;6763;48.524;9.044;2022-10-17T13:36:51;98505.59;;;33.25;21.41
13387;BME280;6763;48.524;9.044;2022-10-17T13:39:21;98506.84;;;33.30;21.21
13387;BME280;6763;48.524;9.044;2022-10-17T13:41:46;98520.00;;;33.41;20.98
13387;BME280;6763;48.524;9.044;2022-10-17T13:44:18;98512.38;;;33.64;20.63
13387;BME280;6763;48.524;9.044;2022-10-17T13:46:45;98516.09;;;33.71;20.90
13387;BME280;6763;48.524;9.044;2022-10-17T13:49:32;98510.50;;;33.82;20.81
13387;BME280;6763;48.524;9.044;2022-10-17T13:52:00;98516.75;;;33.91;20.78
13387;BME280;6763;48.524;9.044;2022-10-17T13:54:42;98513.06;;;33.92;20.54
13387;BME280;6763;48.524;9.044;2022-10-17T13:57:28;98515.66;;;34.01;20.30
13387;BME280;6763;48.524;9.044;2022-10-17T13:59:59;98526.09;;;34.04;20.61
13387;BME280;6763;48.524;9.044;2022-10-17T14:02:28;98512.81;;;34.03;20.56
13387;BME280;6763;48.524;9.044;2022-10-17T14:05:11;98515.16;;;33.98;20.69
13387;BME280;6763;48.524;9.044;2022-10-17T14:10:20;98510.97;;;34.03;20.70
13387;BME280;6763;48.524;9.044;2022-10-17T14:12:46;98512.56;;;34.14;20.79
13387;BME280;6763;48.524;9.044;2022-10-17T14:15:15;98512.22;;;34.43;20.17
13387;BME280;6763;48.524;9.044;2022-10-17T14:17:42;98514.47;;;34.47;20.26
13387;BME280;6763;48.524;9.044;2022-10-17T14:20:19;98506.84;;;34.43;20.44
13387;BME280;6763;48.524;9.044;2022-10-17T14:22:45;98513.13;;;34.51;20.38
13387;BME280;6763;48.524;9.044;2022-10-17T14:25:35;98524.28;;;34.30;20.26
13387;BME280;6763;48.524;9.044;2022-10-17T14:30:38;98527.38;;;34.44;20.07
13387;BME280;6763;48.524;9.044;2022-10-17T14:33:07;98528.88;;;34.72;20.16
13387;BME280;6763;48.524;9.044;2022-10-17T14:35:33;98518.69;;;35.00;20.51
13387;BME280;6763;48.524;9.044;2022-10-17T14:38:01;98522.75;;;35.04;19.62
13387;BME280;6763;48.524;9.044;2022-10-17T14:40:28;98526.75;;;34.83;19.95
13387;BME280;6763;48.524;9.044;2022-10-17T14:42:56;98527.69;;;34.74;20.06
13387;BME280;6763;48.524;9.044;2022-10-17T14:45:33;98518.97;;;34.72;20.38
13387;BME280;6763;48.524;9.044;2022-10-17T14:48:07;98519.09;;;34.63;20.25
13387;BME280;6763;48.524;9.044;2022-10-17T14:50:35;98520.34;;;34.51;20.49
13387;BME280;6763;48.524;9.044;2022-10-17T14:55:38;98523.53;;;34.20;21.11
13387;BME280;6763;48.524;9.044;2022-10-17T14:58:24;98521.19;;;34.00;21.33